createdAt,value
2023-01-28T00:00:54.215Z,30.60
2023-01-28T00:03:21.189Z,31.30
2023-01-28T00:05:48.133Z,30.43
2023-01-28T00:08:15.124Z,29.87
2023-01-28T00:10:45.368Z,29.03
2023-01-28T00:13:16.226Z,29.60
2023-01-28T00:15:43.099Z,29.80
2023-01-28T00:18:09.976Z,29.50
2023-01-28T00:20:37.082Z,29.33
2023-01-28T00:23:04.124Z,29.17
2023-01-28T00:25:31.497Z,29.80
2023-01-28T00:27:58.450Z,30.03
2023-01-28T00:30:25.491Z,29.50
2023-01-28T00:32:54.033Z,29.70
2023-01-28T00:35:21.007Z,31.37
2023-01-28T00:37:47.837Z,30.97
2023-01-28T00:40:14.775Z,33.03
2023-01-28T00:42:41.682Z,30.17
2023-01-28T00:45:08.973Z,28.60
2023-01-28T00:47:35.892Z,29.20
2023-01-28T00:50:03.363Z,30.20
2023-01-28T00:52:30.242Z,31.07
2023-01-28T00:54:57.497Z,30.40
2023-01-28T00:57:24.712Z,29.40
2023-01-28T00:59:51.508Z,28.53
2023-01-28T01:02:18.406Z,27.33
2023-01-28T01:04:55.114Z,27.70
2023-01-28T01:07:32.457Z,27.73
2023-01-28T01:10:02.811Z,25.27
2023-01-28T01:12:29.767Z,24.53
2023-01-28T01:14:57.717Z,23.10
2023-01-28T01:17:24.845Z,24.23
2023-01-28T01:19:51.710Z,21.87
2023-01-28T01:22:18.506Z,22.27
2023-01-28T01:24:45.311Z,21.93
2023-01-28T01:27:12.107Z,21.27
2023-01-28T01:29:39.482Z,20.90
2023-01-28T01:32:06.394Z,21.43
2023-01-28T01:34:33.265Z,21.30
2023-01-28T01:37:00.175Z,20.90
2023-01-28T01:39:26.963Z,21.07
2023-01-28T01:41:53.836Z,20.63
2023-01-28T01:44:58.268Z,20.30
2023-01-28T01:48:03.750Z,19.47
2023-01-28T01:50:33.769Z,19.47
2023-01-28T01:53:28.340Z,19.93
2023-01-28T01:56:00.363Z,21.23
2023-01-28T01:58:31.527Z,20.97
2023-01-28T02:00:59.148Z,20.70
2023-01-28T02:03:31.824Z,20.03
2023-01-28T02:05:58.728Z,20.27
2023-01-28T02:08:25.789Z,20.90
2023-01-28T02:10:56.916Z,20.33
2023-01-28T02:13:27.830Z,19.10
2023-01-28T02:15:56.231Z,20.80
2023-01-28T02:18:23.106Z,20.73
2023-01-28T02:20:58.775Z,20.10
2023-01-28T02:23:50.941Z,20.30
2023-01-28T02:26:37.303Z,19.87
2023-01-28T02:29:30.408Z,20.83
2023-01-28T02:32:20.407Z,21.33
2023-01-28T02:34:53.940Z,20.77
2023-01-28T02:37:23.643Z,20.83
2023-01-28T02:39:55.257Z,21.47
2023-01-28T02:42:29.436Z,20.80
2023-01-28T02:44:56.340Z,19.93
2023-01-28T02:47:42.049Z,21.27
2023-01-28T02:50:19.636Z,19.90
2023-01-28T02:53:31.148Z,18.30
2023-01-28T02:56:06.511Z,18.87
2023-01-28T02:58:45.205Z,19.03
2023-01-28T03:01:40.343Z,19.13
2023-01-28T03:04:24.245Z,19.20
2023-01-28T03:06:56.448Z,18.73
2023-01-28T03:09:27.287Z,18.83
2023-01-28T03:12:12.610Z,18.43
2023-01-28T03:15:00.168Z,19.07
2023-01-28T03:18:02.154Z,19.10
2023-01-28T03:20:53.940Z,19.73
2023-01-28T03:23:45.575Z,20.57
2023-01-28T03:26:32.618Z,18.83
2023-01-28T03:29:27.773Z,19.93
2023-01-28T03:32:14.875Z,19.20
2023-01-28T03:35:01.410Z,19.97
2023-01-28T03:37:30.018Z,20.53
2023-01-28T03:39:58.256Z,22.17
2023-01-28T03:42:25.175Z,20.80
2023-01-28T03:44:52.638Z,18.77
2023-01-28T03:47:30.537Z,19.00
2023-01-28T03:49:59.911Z,16.57
2023-01-28T03:52:30.465Z,16.87
2023-01-28T03:54:57.326Z,16.57
2023-01-28T03:57:27.015Z,17.37
2023-01-28T03:59:54.578Z,14.67
2023-01-28T04:02:22.857Z,14.07
2023-01-28T04:04:50.534Z,13.70
2023-01-28T04:07:17.906Z,14.53
2023-01-28T04:09:45.156Z,14.00
2023-01-28T04:12:12.255Z,15.97
2023-01-28T04:14:40.316Z,16.57
2023-01-28T04:17:10.715Z,17.13
2023-01-28T04:19:37.921Z,16.47
2023-01-28T04:22:07.168Z,16.70
2023-01-28T04:24:34.124Z,16.23
2023-01-28T04:27:00.999Z,15.97
2023-01-28T04:29:27.855Z,15.03
2023-01-28T04:31:54.768Z,14.90
2023-01-28T04:34:21.639Z,15.20
2023-01-28T04:36:48.494Z,14.50
2023-01-28T04:39:15.323Z,13.97
2023-01-28T04:41:42.176Z,13.77
2023-01-28T04:44:09.035Z,13.93
2023-01-28T04:46:35.890Z,13.90
2023-01-28T04:49:03.643Z,14.63
2023-01-28T04:51:30.492Z,13.10
2023-01-28T04:53:57.313Z,14.13
2023-01-28T04:56:24.177Z,14.13
2023-01-28T04:58:51.046Z,14.23
2023-01-28T05:01:17.922Z,14.00
2023-01-28T05:03:44.750Z,14.73
2023-01-28T05:06:11.639Z,15.07
2023-01-28T05:08:38.538Z,14.97
2023-01-28T05:11:05.606Z,15.93
2023-01-28T05:13:32.440Z,16.13
2023-01-28T05:15:59.414Z,15.20
2023-01-28T05:18:26.196Z,15.83
2023-01-28T05:20:53.075Z,16.13
2023-01-28T05:23:19.882Z,16.17
2023-01-28T05:25:46.764Z,15.33
2023-01-28T05:28:13.594Z,17.40
2023-01-28T05:30:40.557Z,16.57
2023-01-28T05:33:07.548Z,16.63
2023-01-28T05:35:34.425Z,17.03
2023-01-28T05:38:01.244Z,18.13
2023-01-28T05:40:28.034Z,17.80
2023-01-28T05:42:54.920Z,18.47
2023-01-28T05:45:21.816Z,18.53
2023-01-28T05:47:48.629Z,18.00
2023-01-28T05:50:16.494Z,18.67
2023-01-28T05:52:43.757Z,19.07
2023-01-28T05:55:11.155Z,18.70
2023-01-28T05:57:38.032Z,19.03
2023-01-28T06:00:05.804Z,19.07
2023-01-28T06:02:32.812Z,21.13
2023-01-28T06:05:00.312Z,20.63
2023-01-28T06:07:27.223Z,19.43
2023-01-28T06:09:54.036Z,21.00
2023-01-28T06:12:20.850Z,21.83
2023-01-28T06:14:47.736Z,22.13
2023-01-28T06:17:14.602Z,20.93
2023-01-28T06:19:41.452Z,21.90
2023-01-28T06:22:08.665Z,22.80
2023-01-28T06:24:35.747Z,23.20
2023-01-28T06:27:02.622Z,21.97
2023-01-28T06:29:29.443Z,23.77
2023-01-28T06:31:56.339Z,23.90
2023-01-28T06:34:23.187Z,23.60
2023-01-28T06:36:51.128Z,23.60
2023-01-28T06:39:17.973Z,24.10
2023-01-28T06:41:44.801Z,23.33
2023-01-28T06:44:11.641Z,23.80
2023-01-28T06:46:38.599Z,24.17
2023-01-28T06:49:05.510Z,24.00
2023-01-28T06:51:32.756Z,25.17
2023-01-28T06:53:59.599Z,23.80
2023-01-28T06:56:26.426Z,24.37
2023-01-28T06:58:53.536Z,22.70
2023-01-28T07:01:20.364Z,23.50
2023-01-28T07:03:47.223Z,23.57
2023-01-28T07:06:14.131Z,23.03
2023-01-28T07:08:41.527Z,22.97
2023-01-28T07:11:08.571Z,23.27
2023-01-28T07:13:35.695Z,24.63
2023-01-28T07:16:04.074Z,24.40
2023-01-28T07:18:31.090Z,24.37
2023-01-28T07:20:57.921Z,22.40
2023-01-28T07:23:24.908Z,24.47
2023-01-28T07:25:51.755Z,23.17
2023-01-28T07:28:21.850Z,23.77
2023-01-28T07:30:53.800Z,22.33
2023-01-28T07:33:20.901Z,23.80
2023-01-28T07:35:48.493Z,23.23
2023-01-28T07:38:15.863Z,22.80
2023-01-28T07:40:42.702Z,24.27
2023-01-28T07:43:09.932Z,24.63
2023-01-28T07:45:37.083Z,24.63
2023-01-28T07:48:07.173Z,24.80
2023-01-28T07:50:36.614Z,24.80
2023-01-28T07:53:05.829Z,23.37
2023-01-28T07:55:35.778Z,23.77
2023-01-28T07:58:04.202Z,24.50
2023-01-28T08:00:32.887Z,24.27
2023-01-28T08:03:02.626Z,23.87
2023-01-28T08:05:48.540Z,26.63
2023-01-28T08:08:16.782Z,24.47
2023-01-28T08:10:46.680Z,24.43
2023-01-28T08:13:14.513Z,24.30
2023-01-28T08:15:41.813Z,23.40
2023-01-28T08:18:10.312Z,24.53
2023-01-28T08:20:37.391Z,26.17
2023-01-28T08:23:18.961Z,24.30
2023-01-28T08:25:46.188Z,25.03
2023-01-28T08:28:14.515Z,24.50
2023-01-28T08:30:42.283Z,25.40
2023-01-28T08:33:11.587Z,24.97
2023-01-28T08:35:38.616Z,25.97
2023-01-28T08:38:06.795Z,24.93
2023-01-28T08:40:34.772Z,25.27
2023-01-28T08:43:01.934Z,25.13
2023-01-28T08:45:29.552Z,25.07
2023-01-28T08:47:57.585Z,24.53
2023-01-28T08:50:28.633Z,24.63
2023-01-28T08:53:00.724Z,25.50
2023-01-28T08:55:28.538Z,24.67
2023-01-28T08:57:57.507Z,23.80
2023-01-28T09:00:25.514Z,23.90
2023-01-28T09:02:53.232Z,24.20
2023-01-28T09:05:21.541Z,24.17
2023-01-28T09:07:49.001Z,24.57
2023-01-28T09:10:20.637Z,24.00
2023-01-28T09:12:47.748Z,24.47
2023-01-28T09:15:14.700Z,23.30
2023-01-28T09:17:41.622Z,24.63
2023-01-28T09:20:09.416Z,24.40
2023-01-28T09:22:36.783Z,22.83
2023-01-28T09:25:03.950Z,23.60
2023-01-28T09:27:30.875Z,23.20
2023-01-28T09:29:57.829Z,23.37
2023-01-28T09:32:24.998Z,23.53
2023-01-28T09:34:52.020Z,24.73
2023-01-28T09:37:18.986Z,24.10
2023-01-28T09:39:45.844Z,23.27
2023-01-28T09:43:09.817Z,24.77
2023-01-28T09:45:44.363Z,22.40
2023-01-28T09:48:16.160Z,23.07
2023-01-28T09:50:47.910Z,22.20
2023-01-28T09:53:34.289Z,23.07
2023-01-28T09:56:46.321Z,22.30
2023-01-28T09:59:20.282Z,23.47
2023-01-28T10:01:58.608Z,23.57
2023-01-28T10:04:47.407Z,22.83
2023-01-28T10:07:38.440Z,23.53
2023-01-28T10:10:22.238Z,22.93
2023-01-28T10:13:21.885Z,22.60
2023-01-28T10:16:00.523Z,22.97
2023-01-28T10:18:46.023Z,20.83
2023-01-28T10:21:44.171Z,21.37
2023-01-28T10:24:10.995Z,22.20
2023-01-28T10:26:41.052Z,22.17
2023-01-28T10:29:17.129Z,22.47
2023-01-28T10:32:24.984Z,21.50
2023-01-28T10:34:53.227Z,22.70
2023-01-28T10:37:21.146Z,24.93
2023-01-28T10:39:48.476Z,23.37
2023-01-28T10:42:28.174Z,23.07
2023-01-28T10:45:03.536Z,21.20
2023-01-28T10:47:57.207Z,22.13
2023-01-28T10:50:27.128Z,22.37
2023-01-28T10:53:02.646Z,23.07
2023-01-28T10:55:38.436Z,22.70
2023-01-28T10:58:05.672Z,25.73
2023-01-28T11:00:37.663Z,26.50
2023-01-28T11:03:04.722Z,26.00
2023-01-28T11:05:31.852Z,25.00
2023-01-28T11:08:15.287Z,27.33
2023-01-28T11:10:43.226Z,26.03
2023-01-28T11:13:28.295Z,26.53
2023-01-28T11:15:57.883Z,25.00
2023-01-28T11:18:28.577Z,26.37
2023-01-28T11:20:59.189Z,25.17
2023-01-28T11:23:38.702Z,25.57
2023-01-28T11:26:05.684Z,24.73
2023-01-28T11:28:32.987Z,25.10
2023-01-28T11:31:03.282Z,24.50
2023-01-28T11:33:43.223Z,25.17
2023-01-28T11:36:13.105Z,25.77
2023-01-28T11:38:53.184Z,24.83
2023-01-28T11:41:34.035Z,24.37
2023-01-28T11:44:16.516Z,24.53
2023-01-28T11:47:21.659Z,23.73
2023-01-28T11:50:26.462Z,24.10
2023-01-28T11:53:26.766Z,23.30
2023-01-28T11:56:26.446Z,23.83
2023-01-28T11:59:02.308Z,22.67
2023-01-28T12:01:29.166Z,23.23
2023-01-28T12:04:14.823Z,23.03
2023-01-28T12:06:59.861Z,21.83
2023-01-28T12:09:35.928Z,22.77
2023-01-28T12:12:14.945Z,21.47
2023-01-28T12:14:56.810Z,20.97
2023-01-28T12:17:51.255Z,19.80
2023-01-28T12:20:51.685Z,19.37
2023-01-28T12:23:37.623Z,20.17
2023-01-28T12:26:04.432Z,19.60
2023-01-28T12:28:37.092Z,19.23
2023-01-28T12:31:13.381Z,19.33
2023-01-28T12:33:55.624Z,19.07
2023-01-28T12:36:25.235Z,18.83
2023-01-28T12:39:09.927Z,17.53
2023-01-28T12:41:44.060Z,17.53
2023-01-28T12:44:23.240Z,18.60
2023-01-28T12:47:04.365Z,17.90
2023-01-28T12:49:40.993Z,18.53
2023-01-28T12:52:35.201Z,17.47
2023-01-28T12:55:16.568Z,17.07
2023-01-28T12:57:44.719Z,17.43
2023-01-28T13:00:32.950Z,16.43
2023-01-28T13:03:25.185Z,17.30
2023-01-28T13:05:59.698Z,16.60
2023-01-28T13:08:28.725Z,16.60
2023-01-28T13:10:58.738Z,16.10
2023-01-28T13:13:37.815Z,14.97
2023-01-28T13:16:08.145Z,13.63
2023-01-28T13:18:41.106Z,13.07
2023-01-28T13:21:13.034Z,12.67
2023-01-28T13:23:46.543Z,13.43
2023-01-28T13:26:19.586Z,13.70
2023-01-28T13:28:52.367Z,12.00
2023-01-28T13:31:23.077Z,12.70
2023-01-28T13:33:56.221Z,11.57
2023-01-28T13:36:39.226Z,11.50
2023-01-28T13:39:20.082Z,11.67
2023-01-28T13:41:55.725Z,9.50
2023-01-28T13:44:34.623Z,9.83
2023-01-28T13:47:33.986Z,8.83
2023-01-28T13:50:04.610Z,9.17
2023-01-28T13:52:57.040Z,8.57
2023-01-28T13:55:43.425Z,9.40
2023-01-28T13:58:38.910Z,9.53
2023-01-28T14:01:28.857Z,9.83
2023-01-28T14:04:21.627Z,10.67
2023-01-28T14:07:05.058Z,11.27
2023-01-28T14:09:49.821Z,11.57
2023-01-28T14:12:50.871Z,12.47
2023-01-28T14:15:45.965Z,12.57
2023-01-28T14:18:25.505Z,13.37
2023-01-28T14:20:54.546Z,13.20
2023-01-28T14:23:23.486Z,13.43
2023-01-28T14:26:01.184Z,13.57
2023-01-28T14:28:31.133Z,12.60
2023-01-28T14:31:29.786Z,12.17
2023-01-28T14:34:19.650Z,12.20
2023-01-28T14:36:48.965Z,11.43
2023-01-28T14:39:21.604Z,11.20
2023-01-28T14:41:51.134Z,11.70
2023-01-28T14:44:26.653Z,12.40
2023-01-28T14:47:35.636Z,11.40
2023-01-28T14:50:11.432Z,12.03
2023-01-28T14:52:53.412Z,12.20
2023-01-28T14:55:46.847Z,12.60
2023-01-28T14:58:25.260Z,11.33
2023-01-28T15:00:57.349Z,11.70
2023-01-28T15:03:26.052Z,11.97
2023-01-28T15:06:07.224Z,11.17
2023-01-28T15:08:35.989Z,11.30
2023-01-28T15:11:05.139Z,10.30
2023-01-28T15:13:54.512Z,9.10
2023-01-28T15:16:29.158Z,8.93
2023-01-28T15:18:59.232Z,8.73
2023-01-28T15:21:28.768Z,7.90
2023-01-28T15:24:01.043Z,8.40
2023-01-28T15:26:31.569Z,7.90
2023-01-28T15:28:59.302Z,7.90
2023-01-28T15:31:31.457Z,7.20
2023-01-28T15:34:02.226Z,7.60
2023-01-28T15:36:30.702Z,7.00
2023-01-28T15:38:58.364Z,7.10
2023-01-28T15:41:33.079Z,6.77
2023-01-28T15:44:00.739Z,6.73
2023-01-28T15:46:27.649Z,6.53
2023-01-28T15:49:00.277Z,6.40
2023-01-28T15:51:31.399Z,6.93
2023-01-28T15:54:05.605Z,6.50
2023-01-28T15:56:32.512Z,7.23
2023-01-28T15:59:14.658Z,7.57
2023-01-28T16:01:42.060Z,6.43
2023-01-28T16:04:29.810Z,7.07
2023-01-28T16:06:59.089Z,5.93
2023-01-28T16:09:31.764Z,5.47
2023-01-28T16:12:04.123Z,6.53
2023-01-28T16:14:43.130Z,5.60
2023-01-28T16:17:16.303Z,6.13
2023-01-28T16:19:46.738Z,6.33
2023-01-28T16:22:36.274Z,7.00
2023-01-28T16:25:23.422Z,6.10
2023-01-28T16:27:50.308Z,5.93
2023-01-28T16:30:17.951Z,5.63
2023-01-28T16:32:45.573Z,5.57
2023-01-28T16:35:21.962Z,6.17
2023-01-28T16:37:49.964Z,6.13
2023-01-28T16:40:19.846Z,6.07
2023-01-28T16:42:50.746Z,6.07
2023-01-28T16:45:21.508Z,6.20
2023-01-28T16:47:48.544Z,6.07
2023-01-28T16:50:17.336Z,5.97
2023-01-28T16:52:46.188Z,5.93
2023-01-28T16:55:16.200Z,6.30
2023-01-28T16:57:44.430Z,6.53
2023-01-28T17:00:23.349Z,6.20
2023-01-28T17:02:51.643Z,6.87
2023-01-28T17:05:19.994Z,6.30
2023-01-28T17:07:51.124Z,7.20
2023-01-28T17:10:18.521Z,7.53
2023-01-28T17:12:47.643Z,9.47
2023-01-28T17:15:15.179Z,8.17
2023-01-28T17:17:42.317Z,8.43
2023-01-28T17:20:11.134Z,7.83
2023-01-28T17:22:38.077Z,10.17
2023-01-28T17:25:05.249Z,10.23
2023-01-28T17:27:32.143Z,12.83
2023-01-28T17:29:59.104Z,13.40
2023-01-28T17:32:26.009Z,9.03
2023-01-28T17:34:53.036Z,9.37
2023-01-28T17:37:19.852Z,10.13
2023-01-28T17:39:46.707Z,10.10
2023-01-28T17:42:13.729Z,10.50
2023-01-28T17:44:41.037Z,10.23
2023-01-28T17:47:08.062Z,9.80
2023-01-28T17:49:35.094Z,8.87
2023-01-28T17:52:02.264Z,9.00
2023-01-28T17:54:29.073Z,9.80
2023-01-28T17:56:56.223Z,9.70
2023-01-28T17:59:24.928Z,9.67
2023-01-28T18:01:54.720Z,10.27
2023-01-28T18:04:21.591Z,10.90
2023-01-28T18:06:49.334Z,10.87
2023-01-28T18:09:16.303Z,11.20
2023-01-28T18:11:44.228Z,10.87
2023-01-28T18:14:11.137Z,11.23
2023-01-28T18:16:37.936Z,10.23
2023-01-28T18:19:06.458Z,11.07
2023-01-28T18:21:51.661Z,9.90
2023-01-28T18:24:20.075Z,9.53
2023-01-28T18:26:47.046Z,9.30
2023-01-28T18:29:17.189Z,9.40
2023-01-28T18:31:44.712Z,9.50
2023-01-28T18:34:11.976Z,9.07
2023-01-28T18:36:38.979Z,10.83
2023-01-28T18:39:06.103Z,9.87
2023-01-28T18:41:32.950Z,10.57
2023-01-28T18:43:59.796Z,10.17
2023-01-28T18:46:26.656Z,9.73
2023-01-28T18:48:53.644Z,10.80
2023-01-28T18:51:30.080Z,11.03
2023-01-28T18:54:02.405Z,10.07
2023-01-28T18:56:30.613Z,10.40
2023-01-28T18:59:00.181Z,10.20
2023-01-28T19:01:28.054Z,9.63
2023-01-28T19:03:56.787Z,6.27
2023-01-28T19:06:24.973Z,7.17
2023-01-28T19:08:57.787Z,7.80
2023-01-28T19:11:26.785Z,7.03
2023-01-28T19:13:54.165Z,7.23
2023-01-28T19:16:22.331Z,7.33
2023-01-28T19:19:00.254Z,8.40
2023-01-28T19:21:30.896Z,10.87
2023-01-28T19:24:03.483Z,11.73
2023-01-28T19:26:32.739Z,11.57
2023-01-28T19:28:59.897Z,10.90
2023-01-28T19:31:27.182Z,12.70
2023-01-28T19:33:57.386Z,13.10
2023-01-28T19:36:26.190Z,13.83
2023-01-28T19:38:56.785Z,13.97
2023-01-28T19:41:23.908Z,12.83
2023-01-28T19:43:50.847Z,11.50
2023-01-28T19:46:18.563Z,12.03
2023-01-28T19:48:46.259Z,12.47
2023-01-28T19:51:14.402Z,14.33
2023-01-28T19:53:43.157Z,13.93
2023-01-28T19:56:15.085Z,15.47
2023-01-28T19:58:43.803Z,14.57
2023-01-28T20:01:16.125Z,12.67
2023-01-28T20:03:44.253Z,12.63
2023-01-28T20:06:13.812Z,12.93
2023-01-28T20:08:40.913Z,12.40
2023-01-28T20:11:10.738Z,10.97
2023-01-28T20:13:39.553Z,8.33
2023-01-28T20:16:08.366Z,10.90
2023-01-28T20:18:36.031Z,9.33
2023-01-28T20:21:05.218Z,9.23
2023-01-28T20:23:32.987Z,7.93
2023-01-28T20:26:03.762Z,7.13
2023-01-28T20:28:30.786Z,5.83
2023-01-28T20:30:58.206Z,5.80
2023-01-28T20:33:25.243Z,5.77
2023-01-28T20:35:52.262Z,8.17
2023-01-28T20:38:19.305Z,5.70
2023-01-28T20:40:47.528Z,7.23
2023-01-28T20:43:14.411Z,6.93
2023-01-28T20:45:41.500Z,7.00
2023-01-28T20:48:08.410Z,6.40
2023-01-28T20:50:36.189Z,6.50
2023-01-28T20:53:03.431Z,6.20
2023-01-28T20:55:31.861Z,5.17
2023-01-28T20:57:58.952Z,5.97
2023-01-28T21:00:25.998Z,6.40
2023-01-28T21:02:55.308Z,6.53
2023-01-28T21:05:22.269Z,6.07
2023-01-28T21:07:49.391Z,5.07
2023-01-28T21:10:16.832Z,6.70
2023-01-28T21:12:43.996Z,6.60
2023-01-28T21:15:11.395Z,7.50
2023-01-28T21:17:38.245Z,8.13
2023-01-28T21:20:05.743Z,7.67
2023-01-28T21:22:33.854Z,7.63
2023-01-28T21:25:01.627Z,7.67
2023-01-28T21:27:29.957Z,7.37
2023-01-28T21:29:56.973Z,7.93
2023-01-28T21:32:26.611Z,7.30
2023-01-28T21:34:54.413Z,7.27
2023-01-28T21:37:22.617Z,7.43
2023-01-28T21:39:50.526Z,6.30
2023-01-28T21:42:17.659Z,6.07
2023-01-28T21:44:44.975Z,6.60
2023-01-28T21:47:12.043Z,5.80
2023-01-28T21:49:38.935Z,7.30
2023-01-28T21:52:07.508Z,6.27
2023-01-28T21:54:36.620Z,6.40
2023-01-28T21:57:03.549Z,6.23
2023-01-28T21:59:30.861Z,7.27
2023-01-28T22:02:09.536Z,7.77
2023-01-28T22:04:38.200Z,6.87
2023-01-28T22:07:07.726Z,7.33
2023-01-28T22:09:35.137Z,6.70
2023-01-28T22:12:08.046Z,6.93
2023-01-28T22:14:36.287Z,7.17
2023-01-28T22:17:03.910Z,6.13
2023-01-28T22:19:32.226Z,5.93
2023-01-28T22:21:59.194Z,6.33
2023-01-28T22:24:26.591Z,5.93
2023-01-28T22:26:54.709Z,7.03
2023-01-28T22:29:22.713Z,6.53
2023-01-28T22:31:52.342Z,7.07
2023-01-28T22:34:20.326Z,8.43
2023-01-28T22:36:47.708Z,8.50
2023-01-28T22:39:16.603Z,8.37
2023-01-28T22:41:44.252Z,7.97
2023-01-28T22:44:11.507Z,7.63
2023-01-28T22:46:38.758Z,8.43
2023-01-28T22:49:06.054Z,7.37
2023-01-28T22:51:35.182Z,8.93
2023-01-28T22:54:03.042Z,7.60
2023-01-28T22:56:30.839Z,7.53
2023-01-28T22:58:59.940Z,7.27
2023-01-28T23:01:27.569Z,7.00
2023-01-28T23:03:56.261Z,7.83
2023-01-28T23:06:25.855Z,7.17
2023-01-28T23:08:53.803Z,7.33
2023-01-28T23:11:28.290Z,7.37
2023-01-28T23:14:19.212Z,6.93
2023-01-28T23:17:05.556Z,7.53
2023-01-28T23:19:51.136Z,7.27
2023-01-28T23:22:50.749Z,7.20
2023-01-28T23:25:19.132Z,6.60
2023-01-28T23:27:46.129Z,7.67
2023-01-28T23:30:14.826Z,7.07
2023-01-28T23:32:46.260Z,6.23
2023-01-28T23:35:13.723Z,6.00
2023-01-28T23:37:41.743Z,6.10
2023-01-28T23:40:09.366Z,5.20
2023-01-28T23:42:36.442Z,5.33
2023-01-28T23:45:03.787Z,5.53
2023-01-28T23:47:30.749Z,5.77
2023-01-28T23:49:57.635Z,5.87
2023-01-28T23:52:26.246Z,5.93
2023-01-28T23:54:53.186Z,5.70
2023-01-28T23:57:20.102Z,5.50
2023-01-28T23:59:46.954Z,5.67
